Time;durP1;ratioP1;P1;durP2;ratioP2;P2;SDS_P1;SDS_P2;PMS_P1;PMS_P2;Temp;Humidity;BMP_temperature;BMP_pressure;BME280_temperature;BME280_humidity;BME280_pressure;Samples;Min_cycle;Max_cycle;Signal;HPM_P1;HPM_P2
2023/02/17 00:00:06;;;;;;;32.17;14.45;;;;;;;;;;5031264;28;20449;-67
2023/02/17 00:02:32;;;;;;;31.70;14.23;;;;;;;;;;5028399;28;20048;-67
2023/02/17 00:04:57;;;;;;;31.75;13.32;;;;;;;;;;5030419;28;20043;-66
2023/02/17 00:07:22;;;;;;;30.55;12.43;;;;;;;;;;5028043;28;20089;-67
2023/02/17 00:09:47;;;;;;;32.55;13.77;;;;;;;;;;5030745;28;20033;-68
2023/02/17 00:12:12;;;;;;;32.67;13.35;;;;;;;;;;5031764;28;20022;-66
2023/02/17 00:14:38;;;;;;;33.10;13.43;;;;;;;;;;5030355;28;20119;-67
2023/02/17 00:17:03;;;;;;;26.63;12.48;;;;;;;;;;5026495;28;20037;-68
2023/02/17 00:19:28;;;;;;;32.40;13.15;;;;;;;;;;5028296;28;20024;-68
2023/02/17 00:21:54;;;;;;;29.90;13.77;;;;;;;;;;5028111;28;20437;-67
2023/02/17 00:24:20;;;;;;;28.77;12.85;;;;;;;;;;5030914;28;20029;-67
2023/02/17 00:26:45;;;;;;;29.45;12.60;;;;;;;;;;5029375;28;20021;-68
2023/02/17 00:29:10;;;;;;;26.60;11.93;;;;;;;;;;5031647;28;20048;-68
2023/02/17 00:31:35;;;;;;;30.75;13.57;;;;;;;;;;5030780;28;20029;-66
2023/02/17 00:34:01;;;;;;;27.50;11.70;;;;;;;;;;5030863;28;20022;-69
2023/02/17 00:36:26;;;;;;;27.33;12.30;;;;;;;;;;5028476;28;20156;-67
2023/02/17 00:38:52;;;;;;;29.10;11.40;;;;;;;;;;5032406;28;20029;-67
2023/02/17 00:41:18;;;;;;;27.13;12.73;;;;;;;;;;5028669;28;20436;-66
2023/02/17 00:43:43;;;;;;;28.88;13.65;;;;;;;;;;5030448;28;20392;-66
2023/02/17 00:46:08;;;;;;;28.55;11.77;;;;;;;;;;5025793;28;20109;-68
2023/02/17 00:48:33;;;;;;;29.30;11.95;;;;;;;;;;5035397;28;20668;-67
2023/02/17 00:50:58;;;;;;;28.92;12.80;;;;;;;;;;5033034;28;20026;-68
2023/02/17 00:53:23;;;;;;;28.73;12.33;;;;;;;;;;5029941;28;20034;-67
2023/02/17 00:55:49;;;;;;;31.38;12.93;;;;;;;;;;5027430;28;20017;-67
2023/02/17 00:58:14;;;;;;;26.35;12.02;;;;;;;;;;5029748;28;20477;-66
2023/02/17 01:00:39;;;;;;;29.38;12.40;;;;;;;;;;5026812;28;20849;-68
2023/02/17 01:03:04;;;;;;;28.25;12.18;;;;;;;;;;5029356;28;20018;-67
2023/02/17 01:05:29;;;;;;;30.23;12.20;;;;;;;;;;5023664;28;20037;-67
2023/02/17 01:07:55;;;;;;;27.53;12.07;;;;;;;;;;5026757;28;20025;-68
2023/02/17 01:10:20;;;;;;;27.58;12.10;;;;;;;;;;5028638;28;20021;-69
2023/02/17 01:12:45;;;;;;;29.53;13.20;;;;;;;;;;5030460;28;20116;-67
2023/02/17 01:15:10;;;;;;;29.63;12.75;;;;;;;;;;5027135;28;20163;-65
2023/02/17 01:17:36;;;;;;;28.63;12.77;;;;;;;;;;5029332;28;20022;-66
2023/02/17 01:20:01;;;;;;;29.30;11.88;;;;;;;;;;5031392;28;20017;-66
2023/02/17 01:22:26;;;;;;;28.58;11.73;;;;;;;;;;5029084;28;20025;-67
2023/02/17 01:24:51;;;;;;;29.60;12.40;;;;;;;;;;5030142;28;20033;-66
2023/02/17 01:27:16;;;;;;;31.75;12.57;;;;;;;;;;5031420;28;20388;-67
2023/02/17 01:29:43;;;;;;;28.17;12.10;;;;;;;;;;5034985;28;20036;-67
2023/02/17 01:32:08;;;;;;;29.10;12.18;;;;;;;;;;5029056;28;20021;-67
2023/02/17 01:34:33;;;;;;;29.17;12.60;;;;;;;;;;5029343;28;20032;-66
2023/02/17 01:36:58;;;;;;;31.43;13.33;;;;;;;;;;5028350;28;20024;-66
2023/02/17 01:39:23;;;;;;;34.30;13.67;;;;;;;;;;5028825;28;20041;-67
2023/02/17 01:41:48;;;;;;;29.10;12.27;;;;;;;;;;5028928;28;20034;-67
2023/02/17 01:44:14;;;;;;;30.33;13.10;;;;;;;;;;5034335;28;20061;-66
2023/02/17 01:46:40;;;;;;;33.73;14.33;;;;;;;;;;5034251;28;20029;-68
2023/02/17 01:49:13;;;;;;;30.35;13.45;;;;;;;;;;5030009;28;20036;-67
2023/02/17 01:51:38;;;;;;;;;;;;;;;;;;5031729;28;20155;-67
2023/02/17 01:54:07;;;;;;;27.98;11.90;;;;;;;;;;5030943;28;19937;-67
2023/02/17 01:56:33;;;;;;;33.22;13.57;;;;;;;;;;5030275;28;20061;-67
2023/02/17 01:59:01;;;;;;;33.22;14.13;;;;;;;;;;5038572;28;20505;-67
2023/02/17 02:01:27;;;;;;;33.20;13.15;;;;;;;;;;5030500;28;20084;-66
2023/02/17 02:03:52;;;;;;;30.15;12.82;;;;;;;;;;5027297;28;20505;-66
2023/02/17 02:06:22;;;;;;;29.73;12.80;;;;;;;;;;5026749;28;20021;-68
2023/02/17 02:08:51;;;;;;;30.25;12.45;;;;;;;;;;5025569;28;20021;-68
2023/02/17 02:11:16;;;;;;;35.78;14.13;;;;;;;;;;5028641;28;20033;-68
2023/02/17 02:13:42;;;;;;;31.48;12.55;;;;;;;;;;5026006;28;20018;-66
2023/02/17 02:16:19;;;;;;;33.92;14.02;;;;;;;;;;5025808;28;20049;-66
2023/02/17 02:18:56;;;;;;;32.45;13.95;;;;;;;;;;5024325;28;20038;-67
2023/02/17 02:21:43;;;;;;;38.50;15.38;;;;;;;;;;5022387;28;20018;-66
2023/02/17 02:24:18;;;;;;;34.42;13.75;;;;;;;;;;5023456;28;20009;-66
2023/02/17 02:27:14;;;;;;;33.63;14.10;;;;;;;;;;5024944;28;20021;-66
2023/02/17 02:29:42;;;;;;;34.60;14.73;;;;;;;;;;5029322;28;20036;-67
2023/02/17 02:32:22;;;;;;;34.78;15.15;;;;;;;;;;5028067;28;20115;-65
2023/02/17 02:35:02;;;;;;;35.17;14.25;;;;;;;;;;5025016;28;20682;-65
2023/02/17 02:37:54;;;;;;;36.30;14.75;;;;;;;;;;5023045;28;20021;-65
2023/02/17 02:40:20;;;;;;;32.78;14.98;;;;;;;;;;5009518;28;20075;-65
2023/02/17 02:42:45;;;;;;;33.92;14.30;;;;;;;;;;5027928;28;20055;-66
2023/02/17 02:45:11;;;;;;;37.63;15.23;;;;;;;;;;5026685;28;20020;-67
2023/02/17 02:47:45;;;;;;;35.87;14.50;;;;;;;;;;5028169;28;20090;-67
2023/02/17 02:50:12;;;;;;;36.60;15.35;;;;;;;;;;5026530;28;20063;-66
2023/02/17 02:52:40;;;;;;;36.30;14.43;;;;;;;;;;5028143;28;20025;-66
2023/02/17 02:55:24;;;;;;;34.25;15.13;;;;;;;;;;5026522;28;20025;-67
2023/02/17 02:57:52;;;;;;;33.00;13.88;;;;;;;;;;5027599;28;20037;-66
2023/02/17 03:00:22;;;;;;;34.03;12.55;;;;;;;;;;5018082;28;20017;-66
2023/02/17 03:02:54;;;;;;;31.83;13.65;;;;;;;;;;5028980;28;20116;-66
2023/02/17 03:05:32;;;;;;;33.33;12.70;;;;;;;;;;5030400;28;20515;-66
2023/02/17 03:07:57;;;;;;;;;;;;;;;;;;5030246;28;20025;-67
2023/02/17 03:10:23;;;;;;;27.65;10.20;;;;;;;;;;5026253;28;19916;-67
2023/02/17 03:12:48;;;;;;;26.93;11.23;;;;;;;;;;5029876;28;20057;-65
2023/02/17 03:15:28;;;;;;;29.65;11.50;;;;;;;;;;5031517;28;20899;-65
2023/02/17 03:17:57;;;;;;;29.48;12.93;;;;;;;;;;5022244;28;20042;-67
2023/02/17 03:20:22;;;;;;;27.38;11.10;;;;;;;;;;5034187;28;20037;-66
2023/02/17 03:22:47;;;;;;;23.60;9.95;;;;;;;;;;5043861;28;20396;-65
2023/02/17 03:25:12;;;;;;;16.83;6.97;;;;;;;;;;5031217;28;20037;-65
2023/02/17 03:27:38;;;;;;;16.92;6.97;;;;;;;;;;5038203;28;20029;-67
2023/02/17 03:30:04;;;;;;;12.45;5.93;;;;;;;;;;5034177;28;20211;-67
2023/02/17 03:32:29;;;;;;;12.50;5.45;;;;;;;;;;5029814;28;20029;-64
2023/02/17 03:34:54;;;;;;;12.43;5.40;;;;;;;;;;5030180;28;20026;-67
2023/02/17 03:37:19;;;;;;;10.80;5.37;;;;;;;;;;5031096;28;20038;-65
2023/02/17 03:39:44;;;;;;;13.23;5.28;;;;;;;;;;5030714;28;20459;-64
2023/02/17 03:42:10;;;;;;;10.33;5.23;;;;;;;;;;5030571;28;20108;-65
2023/02/17 03:44:35;;;;;;;13.13;5.87;;;;;;;;;;5024887;28;20025;-64
2023/02/17 03:47:00;;;;;;;10.37;5.03;;;;;;;;;;5031259;28;20030;-65
2023/02/17 03:49:25;;;;;;;10.73;5.10;;;;;;;;;;5038686;28;20431;-64
2023/02/17 03:51:50;;;;;;;10.50;5.10;;;;;;;;;;5028388;28;20096;-66
2023/02/17 03:54:15;;;;;;;11.05;5.05;;;;;;;;;;5037272;28;20380;-65
2023/02/17 03:56:41;;;;;;;14.35;5.20;;;;;;;;;;5029303;28;20033;-65
2023/02/17 03:59:07;;;;;;;12.20;5.87;;;;;;;;;;5028652;28;20030;-66
2023/02/17 04:01:32;;;;;;;11.45;5.68;;;;;;;;;;5029528;28;20443;-65
2023/02/17 04:03:57;;;;;;;12.30;5.00;;;;;;;;;;5030551;28;20093;-65
2023/02/17 04:06:22;;;;;;;11.20;5.30;;;;;;;;;;5029219;28;20045;-65
2023/02/17 04:08:47;;;;;;;11.65;5.00;;;;;;;;;;5030704;28;20025;-64
2023/02/17 04:11:13;;;;;;;11.20;5.30;;;;;;;;;;5032071;28;20048;-65
2023/02/17 04:13:38;;;;;;;11.77;5.63;;;;;;;;;;5031013;28;20104;-65
2023/02/17 04:16:05;;;;;;;14.98;5.07;;;;;;;;;;5034316;28;20108;-66
2023/02/17 04:18:31;;;;;;;12.10;5.18;;;;;;;;;;5051237;28;20147;-66
2023/02/17 04:20:56;;;;;;;10.93;5.28;;;;;;;;;;5035244;28;20033;-66
2023/02/17 04:23:21;;;;;;;11.60;5.97;;;;;;;;;;5034581;28;20025;-66
2023/02/17 04:25:47;;;;;;;11.50;5.00;;;;;;;;;;5025055;28;20483;-65
2023/02/17 04:28:12;;;;;;;13.27;5.78;;;;;;;;;;5031373;28;20026;-66
2023/02/17 04:30:38;;;;;;;12.43;5.78;;;;;;;;;;5027770;28;20389;-66
2023/02/17 04:33:04;;;;;;;11.05;5.78;;;;;;;;;;5030006;28;20381;-67
2023/02/17 04:35:29;;;;;;;13.27;5.90;;;;;;;;;;5034437;28;20103;-65
2023/02/17 04:37:54;;;;;;;12.60;6.00;;;;;;;;;;5032510;28;20451;-65
2023/02/17 04:40:20;;;;;;;12.88;5.72;;;;;;;;;;5028420;28;20025;-64
2023/02/17 04:42:45;;;;;;;11.93;6.10;;;;;;;;;;5030472;28;20030;-67
2023/02/17 04:45:10;;;;;;;13.95;6.05;;;;;;;;;;5026986;28;20029;-65
2023/02/17 04:47:36;;;;;;;13.10;6.38;;;;;;;;;;5031062;28;20112;-65
2023/02/17 04:50:02;;;;;;;11.57;6.15;;;;;;;;;;5030266;28;20032;-66
2023/02/17 04:52:27;;;;;;;12.93;6.18;;;;;;;;;;5030969;28;20108;-66
2023/02/17 04:54:52;;;;;;;9.93;5.57;;;;;;;;;;5028594;28;20060;-66
2023/02/17 04:57:17;;;;;;;11.75;5.90;;;;;;;;;;5029403;28;20045;-66
2023/02/17 04:59:43;;;;;;;16.77;6.55;;;;;;;;;;5027336;28;20380;-67
2023/02/17 05:02:08;;;;;;;13.30;6.15;;;;;;;;;;5027060;28;20056;-66
2023/02/17 05:04:33;;;;;;;9.33;5.57;;;;;;;;;;5030727;28;20033;-66
2023/02/17 05:06:58;;;;;;;12.27;5.77;;;;;;;;;;5028741;28;20104;-66
2023/02/17 05:09:23;;;;;;;11.35;5.50;;;;;;;;;;5039224;28;20051;-67
2023/02/17 05:11:48;;;;;;;13.43;5.83;;;;;;;;;;5027802;28;20079;-66
2023/02/17 05:14:14;;;;;;;14.45;5.82;;;;;;;;;;5029137;28;20090;-64
2023/02/17 05:16:39;;;;;;;10.37;5.07;;;;;;;;;;5025483;28;20036;-67
2023/02/17 05:19:04;;;;;;;11.15;5.07;;;;;;;;;;5029183;28;20100;-67
2023/02/17 05:21:29;;;;;;;12.32;5.20;;;;;;;;;;5026031;28;20022;-67
2023/02/17 05:23:54;;;;;;;12.35;6.00;;;;;;;;;;5023534;28;20101;-68
2023/02/17 05:26:19;;;;;;;11.32;5.60;;;;;;;;;;5029326;28;20036;-67
2023/02/17 05:28:45;;;;;;;12.07;6.30;;;;;;;;;;5026290;28;20117;-68
2023/02/17 05:31:11;;;;;;;13.30;5.73;;;;;;;;;;5021236;28;20112;-67
2023/02/17 05:33:36;;;;;;;10.20;5.45;;;;;;;;;;5030780;28;20022;-67
2023/02/17 05:36:03;;;;;;;12.77;5.50;;;;;;;;;;5027391;28;20101;-67
2023/02/17 05:38:28;;;;;;;11.68;6.07;;;;;;;;;;5039215;28;20052;-67
2023/02/17 05:40:53;;;;;;;10.17;5.13;;;;;;;;;;5031639;28;20060;-67
2023/02/17 05:43:18;;;;;;;10.45;5.85;;;;;;;;;;5028696;28;20092;-67
2023/02/17 05:45:43;;;;;;;12.57;5.73;;;;;;;;;;5026567;28;20013;-65
2023/02/17 05:48:09;;;;;;;11.55;5.45;;;;;;;;;;5031913;28;20485;-66
2023/02/17 05:50:34;;;;;;;10.70;5.67;;;;;;;;;;5023625;28;21653;-65
2023/02/17 05:52:59;;;;;;;11.98;5.20;;;;;;;;;;5027579;28;20170;-67
2023/02/17 05:55:24;;;;;;;10.68;5.45;;;;;;;;;;5027886;28;20052;-68
2023/02/17 05:57:49;;;;;;;10.93;5.97;;;;;;;;;;5029987;28;20029;-68
2023/02/17 06:00:15;;;;;;;10.32;5.68;;;;;;;;;;5025588;28;20022;-67
2023/02/17 06:02:40;;;;;;;10.85;4.97;;;;;;;;;;5026576;28;20065;-68
2023/02/17 06:05:05;;;;;;;11.47;5.23;;;;;;;;;;5034779;28;20026;-68
2023/02/17 06:07:30;;;;;;;9.63;5.43;;;;;;;;;;5027840;28;20401;-67
2023/02/17 06:09:55;;;;;;;10.02;5.03;;;;;;;;;;5029471;28;20021;-69
2023/02/17 06:12:21;;;;;;;9.70;5.10;;;;;;;;;;5027600;28;20040;-69
2023/02/17 06:14:46;;;;;;;9.65;5.10;;;;;;;;;;5025451;28;20013;-68
2023/02/17 06:17:11;;;;;;;8.65;4.90;;;;;;;;;;5026441;28;20032;-68
2023/02/17 06:19:36;;;;;;;10.05;4.78;;;;;;;;;;5024815;28;20029;-67
2023/02/17 06:22:01;;;;;;;8.25;4.78;;;;;;;;;;5022679;28;20341;-67
2023/02/17 06:24:26;;;;;;;10.53;4.87;;;;;;;;;;5027555;28;20160;-67
2023/02/17 06:26:51;;;;;;;7.80;4.25;;;;;;;;;;5024422;28;20400;-67
2023/02/17 06:29:17;;;;;;;8.23;4.17;;;;;;;;;;5023628;28;20076;-67
2023/02/17 06:31:42;;;;;;;9.27;4.80;;;;;;;;;;5023201;28;20041;-67
2023/02/17 06:34:07;;;;;;;7.23;4.00;;;;;;;;;;5017485;28;20743;-68
2023/02/17 06:36:32;;;;;;;9.15;4.10;;;;;;;;;;5018867;28;20025;-67
2023/02/17 06:38:57;;;;;;;8.03;4.40;;;;;;;;;;5014526;28;20041;-67
2023/02/17 06:41:22;;;;;;;9.35;4.50;;;;;;;;;;5023162;28;20029;-67
2023/02/17 06:43:48;;;;;;;8.27;4.30;;;;;;;;;;5020861;28;20055;-67
2023/02/17 06:46:13;;;;;;;9.67;4.43;;;;;;;;;;5020243;28;20033;-67
2023/02/17 06:48:38;;;;;;;7.45;4.15;;;;;;;;;;5021208;28;20112;-67
2023/02/17 06:51:03;;;;;;;9.98;4.68;;;;;;;;;;5015542;28;20207;-68
2023/02/17 06:53:28;;;;;;;9.88;4.80;;;;;;;;;;5022989;28;20037;-67
2023/02/17 06:55:53;;;;;;;8.50;4.72;;;;;;;;;;5021009;28;20037;-68
2023/02/17 06:58:19;;;;;;;8.93;4.73;;;;;;;;;;5019264;28;20457;-65
2023/02/17 07:00:44;;;;;;;10.80;4.47;;;;;;;;;;5022885;28;20171;-66
2023/02/17 07:03:09;;;;;;;9.27;4.40;;;;;;;;;;5024968;28;20072;-66
2023/02/17 07:05:35;;;;;;;8.83;4.70;;;;;;;;;;5025861;28;20040;-67
2023/02/17 07:08:00;;;;;;;9.43;4.45;;;;;;;;;;5029949;28;20511;-66
2023/02/17 07:10:25;;;;;;;8.93;4.87;;;;;;;;;;5027185;28;20028;-67
2023/02/17 07:12:50;;;;;;;8.30;4.30;;;;;;;;;;5026678;28;20032;-68
2023/02/17 07:15:15;;;;;;;8.20;4.50;;;;;;;;;;5024091;28;20096;-66
2023/02/17 07:17:41;;;;;;;9.90;4.80;;;;;;;;;;5021000;28;20057;-66
2023/02/17 07:20:06;;;;;;;10.07;4.77;;;;;;;;;;5023444;28;20366;-66
2023/02/17 07:22:31;;;;;;;7.95;4.15;;;;;;;;;;5025077;28;20036;-66
2023/02/17 07:24:56;;;;;;;8.13;4.60;;;;;;;;;;5019172;28;20068;-66
2023/02/17 07:27:21;;;;;;;7.75;4.13;;;;;;;;;;5025394;28;20024;-66
2023/02/17 07:29:47;;;;;;;8.60;4.50;;;;;;;;;;5028164;28;20099;-68
2023/02/17 07:32:12;;;;;;;9.07;4.47;;;;;;;;;;5020384;28;20033;-68
2023/02/17 07:34:37;;;;;;;9.63;4.55;;;;;;;;;;5023628;28;20044;-67
2023/02/17 07:37:02;;;;;;;8.48;4.43;;;;;;;;;;5021157;28;20025;-68
2023/02/17 07:39:28;;;;;;;10.38;4.45;;;;;;;;;;5025656;28;20034;-66
2023/02/17 07:41:53;;;;;;;8.10;4.40;;;;;;;;;;5026810;28;20040;-67
2023/02/17 07:44:18;;;;;;;10.23;4.63;;;;;;;;;;5027801;28;20017;-66
2023/02/17 07:46:43;;;;;;;9.30;4.70;;;;;;;;;;5029613;28;20024;-66
2023/02/17 07:49:08;;;;;;;9.15;4.45;;;;;;;;;;5030304;28;20435;-66
2023/02/17 07:51:33;;;;;;;9.07;4.68;;;;;;;;;;5029270;28;20392;-66
2023/02/17 07:53:59;;;;;;;7.77;4.00;;;;;;;;;;5032086;28;20021;-66
2023/02/17 07:56:25;;;;;;;8.23;4.70;;;;;;;;;;5034523;28;20366;-68
2023/02/17 07:58:50;;;;;;;8.30;4.13;;;;;;;;;;5033619;28;20033;-68
2023/02/17 08:01:19;;;;;;;8.50;4.20;;;;;;;;;;5032923;28;20465;-67
2023/02/17 08:03:45;;;;;;;9.63;4.63;;;;;;;;;;5034846;28;20792;-66
2023/02/17 08:06:11;;;;;;;10.25;4.28;;;;;;;;;;5033662;28;20029;-66
2023/02/17 08:14:15;;;;;;;9.57;4.30;;;;;;;;;;5009753;28;20510;-66
2023/02/17 08:16:41;;;;;;;8.33;4.70;;;;;;;;;;5027262;28;20036;-68
2023/02/17 08:19:06;;;;;;;10.98;4.65;;;;;;;;;;5031782;28;20502;-68
2023/02/17 08:21:31;;;;;;;7.80;4.22;;;;;;;;;;5033008;28;20100;-68
2023/02/17 08:23:57;;;;;;;8.60;4.72;;;;;;;;;;5032402;28;20020;-67
2023/02/17 08:26:22;;;;;;;9.10;4.38;;;;;;;;;;5032632;28;20013;-67
2023/02/17 08:28:48;;;;;;;9.65;4.68;;;;;;;;;;5031455;28;20052;-65
2023/02/17 08:31:17;;;;;;;8.85;4.72;;;;;;;;;;5029021;28;20029;-67
2023/02/17 08:33:42;;;;;;;9.52;5.07;;;;;;;;;;5033115;28;20108;-66
2023/02/17 08:36:08;;;;;;;9.38;4.70;;;;;;;;;;5042427;28;20453;-68
2023/02/17 08:38:33;;;;;;;7.68;4.43;;;;;;;;;;5035455;28;20033;-66
2023/02/17 08:40:59;;;;;;;8.30;4.68;;;;;;;;;;5033173;28;20143;-67
2023/02/17 08:43:24;;;;;;;8.93;4.73;;;;;;;;;;5041041;28;20079;-65
2023/02/17 08:45:49;;;;;;;9.82;4.90;;;;;;;;;;5028557;28;20020;-66
2023/02/17 08:48:14;;;;;;;8.65;4.57;;;;;;;;;;5021275;28;20056;-65
2023/02/17 08:50:39;;;;;;;9.32;4.70;;;;;;;;;;5025861;28;20029;-66
2023/02/17 08:53:04;;;;;;;8.50;3.97;;;;;;;;;;5026110;28;20030;-66
2023/02/17 08:55:29;;;;;;;8.80;4.40;;;;;;;;;;5028565;28;20453;-66
2023/02/17 08:57:55;;;;;;;9.25;4.32;;;;;;;;;;5031324;28;20389;-69
2023/02/17 09:00:20;;;;;;;9.60;3.92;;;;;;;;;;5029386;28;20036;-65
2023/02/17 09:02:45;;;;;;;8.60;4.03;;;;;;;;;;5030341;28;20029;-66
2023/02/17 09:05:11;;;;;;;7.78;3.85;;;;;;;;;;5031805;28;20092;-66
2023/02/17 09:07:36;;;;;;;8.38;4.03;;;;;;;;;;5032372;28;20431;-66
2023/02/17 09:10:03;;;;;;;9.25;4.10;;;;;;;;;;5031076;28;20021;-66
2023/02/17 09:12:29;;;;;;;7.07;3.70;;;;;;;;;;5031225;28;20013;-66
2023/02/17 09:14:54;;;;;;;9.30;3.85;;;;;;;;;;5031080;28;20354;-66
2023/02/17 09:17:19;;;;;;;8.00;3.80;;;;;;;;;;5032122;28;20469;-66
2023/02/17 09:19:44;;;;;;;6.00;2.95;;;;;;;;;;5033230;28;20021;-65
2023/02/17 09:22:12;;;;;;;6.70;3.53;;;;;;;;;;5031049;28;20031;-67
2023/02/17 09:24:38;;;;;;;6.18;3.25;;;;;;;;;;5032763;28;20025;-68
2023/02/17 09:27:04;;;;;;;6.38;3.10;;;;;;;;;;5031408;28;20459;-67
2023/02/17 09:29:29;;;;;;;6.45;3.20;;;;;;;;;;5032802;28;20082;-66
2023/02/17 09:31:54;;;;;;;6.20;2.78;;;;;;;;;;5030740;28;20083;-66
2023/02/17 09:34:19;;;;;;;6.93;3.20;;;;;;;;;;5030970;28;20017;-66
2023/02/17 09:36:44;;;;;;;6.88;3.50;;;;;;;;;;5031217;28;20013;-66
2023/02/17 09:39:12;;;;;;;6.35;2.72;;;;;;;;;;5030422;28;20117;-66
2023/02/17 09:41:41;;;;;;;6.00;3.00;;;;;;;;;;5031431;28;20025;-65
2023/02/17 09:44:15;;;;;;;5.78;2.75;;;;;;;;;;5031067;28;20512;-65
2023/02/17 09:46:44;;;;;;;5.97;2.70;;;;;;;;;;5031754;28;20025;-66
2023/02/17 09:49:11;;;;;;;6.70;2.97;;;;;;;;;;5031696;28;20109;-67
2023/02/17 09:51:42;;;;;;;7.03;2.97;;;;;;;;;;5027646;28;20036;-66
2023/02/17 09:54:13;;;;;;;6.63;2.80;;;;;;;;;;5029274;28;20033;-66
2023/02/17 09:56:40;;;;;;;5.85;2.78;;;;;;;;;;5036254;28;20452;-66
2023/02/17 09:59:10;;;;;;;5.95;2.80;;;;;;;;;;5038038;28;20365;-66
2023/02/17 10:01:35;;;;;;;6.78;2.60;;;;;;;;;;5029311;28;20025;-67
2023/02/17 10:04:04;;;;;;;6.28;2.60;;;;;;;;;;5031094;28;20025;-67
2023/02/17 10:06:58;;;;;;;5.10;2.35;;;;;;;;;;5032256;28;20021;-67
2023/02/17 10:09:31;;;;;;;5.75;2.28;;;;;;;;;;5026757;28;20396;-65
2023/02/17 10:11:56;;;;;;;;;;;;;;;;;;5030237;28;20489;-66
2023/02/17 10:14:26;;;;;;;5.70;2.40;;;;;;;;;;5029728;28;20395;-65
2023/02/17 10:16:53;;;;;;;6.25;2.45;;;;;;;;;;5031001;28;20040;-67
2023/02/17 10:19:28;;;;;;;5.78;2.17;;;;;;;;;;5029771;28;20080;-66
2023/02/17 10:22:00;;;;;;;5.72;2.80;;;;;;;;;;5029236;28;20083;-65
2023/02/17 10:24:25;;;;;;;4.72;2.20;;;;;;;;;;5023027;28;20543;-67
2023/02/17 10:26:53;;;;;;;5.53;2.20;;;;;;;;;;5030384;28;20033;-65
2023/02/17 10:29:36;;;;;;;5.32;2.45;;;;;;;;;;5030852;28;20334;-65
2023/02/17 10:32:01;;;;;;;4.90;2.20;;;;;;;;;;5029542;28;20033;-65
2023/02/17 10:34:36;;;;;;;5.88;2.33;;;;;;;;;;5030473;28;20014;-65
2023/02/17 10:37:03;;;;;;;5.78;2.55;;;;;;;;;;5030848;28;20029;-65
2023/02/17 10:39:34;;;;;;;5.57;2.33;;;;;;;;;;5030761;28;20038;-66
2023/02/17 10:42:00;;;;;;;5.38;2.60;;;;;;;;;;5028252;28;20435;-68
2023/02/17 10:44:26;;;;;;;5.60;2.40;;;;;;;;;;5029708;28;20469;-66
2023/02/17 10:46:52;;;;;;;5.65;2.58;;;;;;;;;;5029486;28;20095;-66
2023/02/17 10:49:24;;;;;;;5.75;2.50;;;;;;;;;;5026189;28;20022;-66
2023/02/17 10:51:50;;;;;;;5.03;2.20;;;;;;;;;;5025051;28;20473;-65
2023/02/17 10:54:36;;;;;;;7.37;2.50;;;;;;;;;;5029657;28;20028;-65
2023/02/17 10:57:02;;;;;;;6.55;2.42;;;;;;;;;;5030302;28;20674;-65
2023/02/17 10:59:30;;;;;;;7.88;2.53;;;;;;;;;;5028566;28;20021;-65
2023/02/17 11:01:57;;;;;;;5.85;2.50;;;;;;;;;;5029488;28;20036;-66
2023/02/17 11:04:22;;;;;;;4.85;2.30;;;;;;;;;;5029764;28;20014;-65
2023/02/17 11:06:49;;;;;;;5.68;2.22;;;;;;;;;;5029256;28;20102;-64
2023/02/17 11:09:19;;;;;;;5.82;2.10;;;;;;;;;;5030850;28;20052;-65
2023/02/17 11:11:57;;;;;;;7.43;2.42;;;;;;;;;;5033955;28;20143;-67
2023/02/17 11:14:25;;;;;;;5.35;1.98;;;;;;;;;;5028357;28;20045;-68
2023/02/17 11:16:53;;;;;;;6.00;2.22;;;;;;;;;;5028922;28;20397;-65
2023/02/17 11:19:20;;;;;;;5.15;2.25;;;;;;;;;;5030193;28;20060;-65
2023/02/17 11:21:45;;;;;;;6.53;2.50;;;;;;;;;;5029589;28;20018;-68
2023/02/17 11:24:10;;;;;;;5.77;1.90;;;;;;;;;;5029172;28;20036;-66
2023/02/17 11:26:35;;;;;;;5.13;2.20;;;;;;;;;;5025926;28;20519;-67
2023/02/17 11:29:07;;;;;;;4.60;2.30;;;;;;;;;;5029964;28;20025;-67
2023/02/17 11:31:32;;;;;;;5.68;2.30;;;;;;;;;;5030107;28;20021;-67
2023/02/17 11:33:58;;;;;;;4.53;2.00;;;;;;;;;;5029666;28;20021;-67
2023/02/17 11:36:25;;;;;;;5.70;2.17;;;;;;;;;;5025681;28;20484;-66
2023/02/17 11:38:50;;;;;;;5.10;1.90;;;;;;;;;;5030999;28;20461;-67
2023/02/17 11:41:16;;;;;;;5.07;1.97;;;;;;;;;;5032906;28;20036;-67
2023/02/17 11:43:50;;;;;;;5.32;2.20;;;;;;;;;;5034087;28;20120;-67
2023/02/17 11:46:22;;;;;;;4.35;1.73;;;;;;;;;;5031180;28;20064;-67
2023/02/17 11:48:57;;;;;;;6.43;2.20;;;;;;;;;;5034764;28;20029;-67
2023/02/17 11:51:31;;;;;;;4.97;1.88;;;;;;;;;;5037178;28;20032;-65
2023/02/17 11:54:02;;;;;;;5.03;1.83;;;;;;;;;;5034832;28;20025;-67
2023/02/17 11:56:34;;;;;;;5.35;2.08;;;;;;;;;;5035272;28;20020;-68
2023/02/17 11:59:05;;;;;;;4.45;1.83;;;;;;;;;;5040865;28;20033;-67
2023/02/17 12:01:50;;;;;;;5.32;2.00;;;;;;;;;;5034433;28;20053;-68
2023/02/17 12:04:22;;;;;;;4.57;2.05;;;;;;;;;;5030008;28;20017;-67
2023/02/17 12:07:06;;;;;;;4.80;1.70;;;;;;;;;;5030998;28;20125;-67
2023/02/17 12:09:31;;;;;;;;;;;;;;;;;;5029671;28;20132;-67
2023/02/17 12:12:20;;;;;;;5.10;1.90;;;;;;;;;;5033174;28;19991;-67
2023/02/17 12:14:45;;;;;;;5.05;1.70;;;;;;;;;;5033811;28;20684;-67
2023/02/17 12:17:34;;;;;;;4.80;2.13;;;;;;;;;;5032635;28;20547;-68
2023/02/17 12:20:06;;;;;;;4.30;1.75;;;;;;;;;;5030209;28;20026;-66
2023/02/17 12:22:38;;;;;;;4.72;1.70;;;;;;;;;;5032408;28;20508;-67
2023/02/17 12:25:23;;;;;;;5.38;1.98;;;;;;;;;;5027443;28;20504;-66
2023/02/17 12:28:03;;;;;;;4.05;1.75;;;;;;;;;;5031783;28;20030;-67
2023/02/17 12:30:34;;;;;;;4.78;1.60;;;;;;;;;;5023022;28;20100;-67
2023/02/17 12:33:05;;;;;;;5.65;1.75;;;;;;;;;;5029060;28;20469;-65
2023/02/17 12:35:36;;;;;;;4.60;1.98;;;;;;;;;;5034419;28;20025;-66
2023/02/17 12:38:08;;;;;;;3.97;1.70;;;;;;;;;;5026410;28;20030;-65
2023/02/17 12:40:52;;;;;;;4.07;1.70;;;;;;;;;;5029224;28;20022;-66
2023/02/17 12:43:26;;;;;;;4.85;1.65;;;;;;;;;;5028386;28;20021;-65
2023/02/17 12:45:52;;;;;;;4.40;1.55;;;;;;;;;;5021190;28;20797;-67
2023/02/17 12:48:43;;;;;;;4.32;1.80;;;;;;;;;;5030703;28;20360;-66
2023/02/17 12:51:11;;;;;;;3.85;1.40;;;;;;;;;;5027361;28;20025;-66
2023/02/17 12:53:51;;;;;;;4.85;1.70;;;;;;;;;;5028830;28;20021;-66
2023/02/17 12:56:35;;;;;;;4.38;1.80;;;;;;;;;;5024673;28;20475;-66
2023/02/17 12:59:09;;;;;;;4.07;1.55;;;;;;;;;;5029196;28;20044;-66
2023/02/17 13:01:36;;;;;;;5.40;1.65;;;;;;;;;;5027511;28;20480;-67
2023/02/17 13:04:01;;;;;;;4.75;1.70;;;;;;;;;;5028331;28;20033;-66
2023/02/17 13:06:39;;;;;;;4.57;1.60;;;;;;;;;;5022030;28;20017;-65
2023/02/17 13:09:04;;;;;;;;;;;;;;;;;;5028369;28;20372;-67
2023/02/17 13:11:31;;;;;;;3.80;1.45;;;;;;;;;;5015630;28;20356;-67
2023/02/17 13:13:56;;;;;;;4.78;1.55;;;;;;;;;;5032930;28;20033;-67
2023/02/17 13:16:21;;;;;;;5.53;1.60;;;;;;;;;;5025373;28;20075;-67
2023/02/17 13:18:48;;;;;;;4.97;1.35;;;;;;;;;;5024871;28;20077;-67
2023/02/17 13:21:21;;;;;;;3.95;1.55;;;;;;;;;;5026276;28;20695;-66
2023/02/17 13:24:00;;;;;;;4.28;1.50;;;;;;;;;;5026921;28;20044;-66
2023/02/17 13:26:27;;;;;;;3.35;1.40;;;;;;;;;;5017709;28;20028;-67
2023/02/17 13:28:53;;;;;;;3.50;1.38;;;;;;;;;;5027917;28;20124;-65
2023/02/17 13:31:23;;;;;;;4.15;1.30;;;;;;;;;;5026186;28;20780;-66
2023/02/17 13:33:53;;;;;;;3.53;1.20;;;;;;;;;;5027397;28;20029;-65
2023/02/17 13:36:21;;;;;;;3.00;1.10;;;;;;;;;;5026267;28;20081;-67
2023/02/17 13:38:55;;;;;;;4.03;1.30;;;;;;;;;;5021381;28;20034;-65
2023/02/17 13:41:20;;;;;;;3.65;1.10;;;;;;;;;;5025217;28;20083;-66
2023/02/17 13:43:45;;;;;;;3.45;1.10;;;;;;;;;;5026863;28;20741;-66
2023/02/17 13:46:15;;;;;;;4.18;1.10;;;;;;;;;;5025692;28;20061;-66
2023/02/17 13:48:40;;;;;;;4.00;1.20;;;;;;;;;;5027117;28;20043;-67
2023/02/17 13:51:08;;;;;;;8.43;1.37;;;;;;;;;;5025464;28;20029;-65
2023/02/17 13:53:37;;;;;;;4.72;1.25;;;;;;;;;;5026312;28;20479;-67
2023/02/17 13:56:04;;;;;;;4.10;1.20;;;;;;;;;;5024630;28;20025;-67
2023/02/17 13:58:31;;;;;;;3.63;1.08;;;;;;;;;;5024246;28;20029;-65
2023/02/17 14:00:56;;;;;;;3.05;1.00;;;;;;;;;;5027795;28;20014;-67
2023/02/17 14:03:24;;;;;;;3.13;1.20;;;;;;;;;;5024345;28;20104;-66
2023/02/17 14:05:50;;;;;;;3.30;1.10;;;;;;;;;;5025853;28;20485;-64
2023/02/17 14:08:21;;;;;;;3.05;1.00;;;;;;;;;;5026971;28;20107;-66
2023/02/17 14:10:47;;;;;;;2.58;0.98;;;;;;;;;;5025507;28;20121;-67
2023/02/17 14:13:12;;;;;;;4.13;1.27;;;;;;;;;;5026824;28;20810;-67
2023/02/17 14:15:48;;;;;;;2.63;0.90;;;;;;;;;;5024751;28;20057;-67
2023/02/17 14:18:13;;;;;;;5.72;1.10;;;;;;;;;;5019937;28;20037;-67
2023/02/17 14:20:40;;;;;;;4.75;0.98;;;;;;;;;;5027937;28;20083;-65
2023/02/17 14:23:05;;;;;;;2.95;0.90;;;;;;;;;;5026777;28;20109;-65
2023/02/17 14:25:32;;;;;;;2.63;0.93;;;;;;;;;;5027097;28;20117;-65
2023/02/17 14:27:57;;;;;;;2.40;0.90;;;;;;;;;;5022123;28;20136;-67
2023/02/17 14:30:40;;;;;;;2.60;0.90;;;;;;;;;;5027049;28;20745;-66
2023/02/17 14:33:15;;;;;;;2.30;0.95;;;;;;;;;;5025294;28;20029;-67
2023/02/17 14:35:56;;;;;;;2.58;0.80;;;;;;;;;;5026411;28;20036;-65
2023/02/17 14:38:30;;;;;;;3.67;0.90;;;;;;;;;;5025610;28;20040;-66
2023/02/17 14:40:56;;;;;;;3.13;1.00;;;;;;;;;;5027499;28;20030;-67
2023/02/17 14:43:21;;;;;;;4.15;0.80;;;;;;;;;;5017681;28;20029;-67